sensor_id;sensor_type;location;lat;lon;timestamp;P1;durP1;ratioP1;P2;durP2;ratioP2
20535;SDS011;10426;49.420;8.390;2022-09-04T00:00:35;4.03;;;3.83;;
20535;SDS011;10426;49.420;8.390;2022-09-04T00:03:14;4.10;;;3.80;;
20535;SDS011;10426;49.420;8.390;2022-09-04T00:05:46;4.30;;;3.90;;
20535;SDS011;10426;49.420;8.390;2022-09-04T00:08:23;4.35;;;3.95;;
20535;SDS011;10426;49.420;8.390;2022-09-04T00:10:54;4.43;;;4.03;;
20535;SDS011;10426;49.420;8.390;2022-09-04T00:13:23;4.03;;;3.83;;
20535;SDS011;10426;49.420;8.390;2022-09-04T00:15:53;4.85;;;4.45;;
20535;SDS011;10426;49.420;8.390;2022-09-04T00:18:23;4.40;;;4.00;;
20535;SDS011;10426;49.420;8.390;2022-09-04T00:20:52;4.22;;;3.92;;
20535;SDS011;10426;49.420;8.390;2022-09-04T00:23:20;4.50;;;4.10;;
20535;SDS011;10426;49.420;8.390;2022-09-04T00:25:52;4.57;;;4.20;;
20535;SDS011;10426;49.420;8.390;2022-09-04T00:28:29;4.60;;;4.18;;
20535;SDS011;10426;49.420;8.390;2022-09-04T00:30:59;4.60;;;4.20;;
20535;SDS011;10426;49.420;8.390;2022-09-04T00:33:29;4.30;;;4.00;;
20535;SDS011;10426;49.420;8.390;2022-09-04T00:35:58;4.00;;;3.80;;
20535;SDS011;10426;49.420;8.390;2022-09-04T00:38:31;5.82;;;4.10;;
20535;SDS011;10426;49.420;8.390;2022-09-04T00:41:00;4.20;;;3.80;;
20535;SDS011;10426;49.420;8.390;2022-09-04T00:43:46;4.22;;;3.83;;
20535;SDS011;10426;49.420;8.390;2022-09-04T00:46:20;4.07;;;3.73;;
20535;SDS011;10426;49.420;8.390;2022-09-04T00:48:58;3.90;;;3.60;;
20535;SDS011;10426;49.420;8.390;2022-09-04T00:51:35;3.95;;;3.65;;
20535;SDS011;10426;49.420;8.390;2022-09-04T00:54:09;4.10;;;3.80;;
20535;SDS011;10426;49.420;8.390;2022-09-04T00:56:45;4.05;;;3.65;;
20535;SDS011;10426;49.420;8.390;2022-09-04T00:59:21;3.80;;;3.50;;
20535;SDS011;10426;49.420;8.390;2022-09-04T01:01:51;3.92;;;3.63;;
20535;SDS011;10426;49.420;8.390;2022-09-04T01:04:25;4.50;;;4.20;;
20535;SDS011;10426;49.420;8.390;2022-09-04T01:07:02;4.30;;;4.00;;
20535;SDS011;10426;49.420;8.390;2022-09-04T01:09:41;4.75;;;4.20;;
20535;SDS011;10426;49.420;8.390;2022-09-04T01:12:15;4.15;;;3.85;;
20535;SDS011;10426;49.420;8.390;2022-09-04T01:14:52;4.32;;;3.83;;
20535;SDS011;10426;49.420;8.390;2022-09-04T01:17:23;4.18;;;3.72;;
20535;SDS011;10426;49.420;8.390;2022-09-04T01:19:54;4.40;;;4.00;;
20535;SDS011;10426;49.420;8.390;2022-09-04T01:22:25;4.77;;;4.37;;
20535;SDS011;10426;49.420;8.390;2022-09-04T01:25:02;4.60;;;4.30;;
20535;SDS011;10426;49.420;8.390;2022-09-04T01:27:33;4.85;;;3.92;;
20535;SDS011;10426;49.420;8.390;2022-09-04T01:30:04;4.15;;;3.85;;
20535;SDS011;10426;49.420;8.390;2022-09-04T01:32:34;5.20;;;4.23;;
20535;SDS011;10426;49.420;8.390;2022-09-04T01:35:07;4.65;;;4.25;;
20535;SDS011;10426;49.420;8.390;2022-09-04T01:37:42;4.50;;;4.20;;
20535;SDS011;10426;49.420;8.390;2022-09-04T01:40:17;4.65;;;4.25;;
20535;SDS011;10426;49.420;8.390;2022-09-04T01:42:47;4.70;;;4.20;;
20535;SDS011;10426;49.420;8.390;2022-09-04T01:45:18;4.65;;;4.35;;
20535;SDS011;10426;49.420;8.390;2022-09-04T01:47:50;4.10;;;3.90;;
20535;SDS011;10426;49.420;8.390;2022-09-04T01:50:17;4.78;;;4.35;;
20535;SDS011;10426;49.420;8.390;2022-09-04T01:52:47;4.35;;;4.05;;
20535;SDS011;10426;49.420;8.390;2022-09-04T01:55:17;4.30;;;3.90;;
20535;SDS011;10426;49.420;8.390;2022-09-04T01:57:53;5.10;;;4.70;;
20535;SDS011;10426;49.420;8.390;2022-09-04T02:00:21;4.60;;;4.22;;
20535;SDS011;10426;49.420;8.390;2022-09-04T02:02:52;4.45;;;4.15;;
20535;SDS011;10426;49.420;8.390;2022-09-04T02:05:20;4.68;;;4.28;;
20535;SDS011;10426;49.420;8.390;2022-09-04T02:07:53;4.90;;;4.50;;
20535;SDS011;10426;49.420;8.390;2022-09-04T02:10:27;4.45;;;4.15;;
20535;SDS011;10426;49.420;8.390;2022-09-04T02:12:58;4.22;;;3.92;;
20535;SDS011;10426;49.420;8.390;2022-09-04T02:15:33;4.55;;;4.18;;
20535;SDS011;10426;49.420;8.390;2022-09-04T02:18:03;4.35;;;4.05;;
20535;SDS011;10426;49.420;8.390;2022-09-04T02:20:37;5.83;;;4.30;;
20535;SDS011;10426;49.420;8.390;2022-09-04T02:23:07;4.43;;;4.03;;
20535;SDS011;10426;49.420;8.390;2022-09-04T02:25:37;4.30;;;4.00;;
20535;SDS011;10426;49.420;8.390;2022-09-04T02:28:12;4.53;;;4.22;;
20535;SDS011;10426;49.420;8.390;2022-09-04T02:30:42;5.15;;;4.55;;
20535;SDS011;10426;49.420;8.390;2022-09-04T02:33:11;4.60;;;4.13;;
20535;SDS011;10426;49.420;8.390;2022-09-04T02:35:41;4.57;;;4.18;;
20535;SDS011;10426;49.420;8.390;2022-09-04T02:38:14;4.05;;;3.75;;
20535;SDS011;10426;49.420;8.390;2022-09-04T02:40:45;4.28;;;3.88;;
20535;SDS011;10426;49.420;8.390;2022-09-04T02:43:21;4.40;;;4.10;;
20535;SDS011;10426;49.420;8.390;2022-09-04T02:45:53;4.75;;;4.28;;
20535;SDS011;10426;49.420;8.390;2022-09-04T02:48:23;4.47;;;4.13;;
20535;SDS011;10426;49.420;8.390;2022-09-04T02:50:57;4.82;;;4.43;;
20535;SDS011;10426;49.420;8.390;2022-09-04T02:53:30;4.82;;;4.40;;
20535;SDS011;10426;49.420;8.390;2022-09-04T02:56:02;5.03;;;4.63;;
20535;SDS011;10426;49.420;8.390;2022-09-04T02:58:38;4.90;;;4.60;;
20535;SDS011;10426;49.420;8.390;2022-09-04T03:01:09;4.88;;;4.47;;
20535;SDS011;10426;49.420;8.390;2022-09-04T03:03:38;5.13;;;4.55;;
20535;SDS011;10426;49.420;8.390;2022-09-04T03:06:08;6.75;;;4.80;;
20535;SDS011;10426;49.420;8.390;2022-09-04T03:08:36;4.63;;;4.30;;
20535;SDS011;10426;49.420;8.390;2022-09-04T03:11:05;4.68;;;4.30;;
20535;SDS011;10426;49.420;8.390;2022-09-04T03:13:35;4.43;;;4.13;;
20535;SDS011;10426;49.420;8.390;2022-09-04T03:16:09;5.03;;;4.63;;
20535;SDS011;10426;49.420;8.390;2022-09-04T03:18:50;4.63;;;4.18;;
20535;SDS011;10426;49.420;8.390;2022-09-04T03:21:20;4.70;;;4.30;;
20535;SDS011;10426;49.420;8.390;2022-09-04T03:23:49;4.63;;;4.32;;
20535;SDS011;10426;49.420;8.390;2022-09-04T03:26:19;5.10;;;4.60;;
20535;SDS011;10426;49.420;8.390;2022-09-04T03:28:56;4.88;;;4.40;;
20535;SDS011;10426;49.420;8.390;2022-09-04T03:31:30;4.80;;;4.50;;
20535;SDS011;10426;49.420;8.390;2022-09-04T03:34:03;4.87;;;4.47;;
20535;SDS011;10426;49.420;8.390;2022-09-04T03:36:34;5.18;;;4.68;;
20535;SDS011;10426;49.420;8.390;2022-09-04T03:39:06;5.60;;;4.90;;
20535;SDS011;10426;49.420;8.390;2022-09-04T03:41:36;5.10;;;4.70;;
20535;SDS011;10426;49.420;8.390;2022-09-04T03:44:10;4.65;;;4.22;;
20535;SDS011;10426;49.420;8.390;2022-09-04T03:46:44;5.25;;;4.85;;
20535;SDS011;10426;49.420;8.390;2022-09-04T03:49:14;4.72;;;4.32;;
20535;SDS011;10426;49.420;8.390;2022-09-04T03:51:50;4.43;;;4.13;;
20535;SDS011;10426;49.420;8.390;2022-09-04T03:54:25;4.13;;;3.80;;
20535;SDS011;10426;49.420;8.390;2022-09-04T03:57:00;4.38;;;4.07;;
20535;SDS011;10426;49.420;8.390;2022-09-04T03:59:34;5.07;;;4.57;;
20535;SDS011;10426;49.420;8.390;2022-09-04T04:02:10;4.70;;;4.30;;
20535;SDS011;10426;49.420;8.390;2022-09-04T04:04:48;4.78;;;4.40;;
20535;SDS011;10426;49.420;8.390;2022-09-04T04:07:22;4.67;;;4.37;;
20535;SDS011;10426;49.420;8.390;2022-09-04T04:09:53;4.57;;;4.28;;
20535;SDS011;10426;49.420;8.390;2022-09-04T04:12:29;4.53;;;4.10;;
20535;SDS011;10426;49.420;8.390;2022-09-04T04:15:01;4.43;;;4.13;;
20535;SDS011;10426;49.420;8.390;2022-09-04T04:20:29;4.70;;;4.30;;
20535;SDS011;10426;49.420;8.390;2022-09-04T04:25:45;4.57;;;4.20;;
20535;SDS011;10426;49.420;8.390;2022-09-04T04:28:19;4.28;;;3.97;;
20535;SDS011;10426;49.420;8.390;2022-09-04T04:30:48;3.88;;;3.58;;
20535;SDS011;10426;49.420;8.390;2022-09-04T04:33:19;4.38;;;4.00;;
20535;SDS011;10426;49.420;8.390;2022-09-04T04:35:50;5.38;;;4.93;;
20535;SDS011;10426;49.420;8.390;2022-09-04T04:38:26;4.72;;;4.43;;
20535;SDS011;10426;49.420;8.390;2022-09-04T04:40:58;5.28;;;4.78;;
20535;SDS011;10426;49.420;8.390;2022-09-04T04:43:30;7.53;;;5.50;;
20535;SDS011;10426;49.420;8.390;2022-09-04T04:46:00;6.97;;;5.30;;
20535;SDS011;10426;49.420;8.390;2022-09-04T04:48:41;6.22;;;5.63;;
20535;SDS011;10426;49.420;8.390;2022-09-04T04:51:18;5.87;;;5.23;;
20535;SDS011;10426;49.420;8.390;2022-09-04T04:53:48;6.47;;;5.88;;
20535;SDS011;10426;49.420;8.390;2022-09-04T04:56:17;7.07;;;6.07;;
20535;SDS011;10426;49.420;8.390;2022-09-04T04:59:01;7.53;;;6.07;;
20535;SDS011;10426;49.420;8.390;2022-09-04T05:01:32;6.47;;;5.70;;
20535;SDS011;10426;49.420;8.390;2022-09-04T05:04:04;6.55;;;5.88;;
20535;SDS011;10426;49.420;8.390;2022-09-04T05:06:35;6.65;;;5.53;;
20535;SDS011;10426;49.420;8.390;2022-09-04T05:09:06;6.93;;;5.78;;
20535;SDS011;10426;49.420;8.390;2022-09-04T05:11:38;7.38;;;5.90;;
20535;SDS011;10426;49.420;8.390;2022-09-04T05:14:09;6.88;;;5.97;;
20535;SDS011;10426;49.420;8.390;2022-09-04T05:16:44;7.05;;;6.07;;
20535;SDS011;10426;49.420;8.390;2022-09-04T05:19:14;6.95;;;6.25;;
20535;SDS011;10426;49.420;8.390;2022-09-04T05:21:46;7.20;;;5.72;;
20535;SDS011;10426;49.420;8.390;2022-09-04T05:24:16;6.38;;;5.78;;
20535;SDS011;10426;49.420;8.390;2022-09-04T05:26:46;8.52;;;6.32;;
20535;SDS011;10426;49.420;8.390;2022-09-04T05:29:18;6.80;;;6.10;;
20535;SDS011;10426;49.420;8.390;2022-09-04T05:31:49;8.45;;;6.43;;
20535;SDS011;10426;49.420;8.390;2022-09-04T05:34:24;8.05;;;6.95;;
20535;SDS011;10426;49.420;8.390;2022-09-04T05:36:56;9.20;;;6.97;;
20535;SDS011;10426;49.420;8.390;2022-09-04T05:39:26;8.50;;;7.37;;
20535;SDS011;10426;49.420;8.390;2022-09-04T05:44:44;11.20;;;8.27;;
20535;SDS011;10426;49.420;8.390;2022-09-04T05:47:18;9.10;;;7.90;;
20535;SDS011;10426;49.420;8.390;2022-09-04T05:49:56;9.73;;;8.00;;
20535;SDS011;10426;49.420;8.390;2022-09-04T05:52:34;8.50;;;7.60;;
20535;SDS011;10426;49.420;8.390;2022-09-04T05:55:10;7.82;;;6.97;;
20535;SDS011;10426;49.420;8.390;2022-09-04T05:57:46;7.15;;;6.43;;
20535;SDS011;10426;49.420;8.390;2022-09-04T06:00:15;8.95;;;6.55;;
20535;SDS011;10426;49.420;8.390;2022-09-04T06:02:48;7.97;;;6.82;;
20535;SDS011;10426;49.420;8.390;2022-09-04T06:05:21;8.85;;;6.78;;
20535;SDS011;10426;49.420;8.390;2022-09-04T06:07:52;7.00;;;6.30;;
20535;SDS011;10426;49.420;8.390;2022-09-04T06:10:22;8.35;;;6.38;;
20535;SDS011;10426;49.420;8.390;2022-09-04T06:15:49;6.65;;;6.00;;
20535;SDS011;10426;49.420;8.390;2022-09-04T06:18:32;6.95;;;6.30;;
20535;SDS011;10426;49.420;8.390;2022-09-04T06:21:06;7.95;;;6.18;;
20535;SDS011;10426;49.420;8.390;2022-09-04T06:23:48;7.00;;;6.30;;
20535;SDS011;10426;49.420;8.390;2022-09-04T06:26:25;6.97;;;6.28;;
20535;SDS011;10426;49.420;8.390;2022-09-04T06:28:56;8.93;;;7.20;;
20535;SDS011;10426;49.420;8.390;2022-09-04T06:31:32;8.60;;;7.70;;
20535;SDS011;10426;49.420;8.390;2022-09-04T06:34:03;8.15;;;6.70;;
20535;SDS011;10426;49.420;8.390;2022-09-04T06:36:42;8.18;;;7.38;;
20535;SDS011;10426;49.420;8.390;2022-09-04T06:39:20;8.07;;;7.20;;
20535;SDS011;10426;49.420;8.390;2022-09-04T06:41:53;7.25;;;6.55;;
20535;SDS011;10426;49.420;8.390;2022-09-04T06:44:26;7.60;;;6.90;;
20535;SDS011;10426;49.420;8.390;2022-09-04T06:47:00;8.45;;;6.78;;
20535;SDS011;10426;49.420;8.390;2022-09-04T06:49:34;8.90;;;6.73;;
20535;SDS011;10426;49.420;8.390;2022-09-04T06:52:05;6.90;;;6.30;;
20535;SDS011;10426;49.420;8.390;2022-09-04T06:54:40;9.40;;;5.70;;
20535;SDS011;10426;49.420;8.390;2022-09-04T06:57:14;7.22;;;6.53;;
20535;SDS011;10426;49.420;8.390;2022-09-04T07:02:32;5.90;;;5.40;;
20535;SDS011;10426;49.420;8.390;2022-09-04T07:05:10;5.85;;;5.35;;
20535;SDS011;10426;49.420;8.390;2022-09-04T07:07:41;7.20;;;5.13;;
20535;SDS011;10426;49.420;8.390;2022-09-04T07:10:12;6.13;;;5.40;;
20535;SDS011;10426;49.420;8.390;2022-09-04T07:12:47;5.90;;;5.40;;
20535;SDS011;10426;49.420;8.390;2022-09-04T07:15:30;6.10;;;4.93;;
20535;SDS011;10426;49.420;8.390;2022-09-04T07:17:59;6.22;;;5.63;;
20535;SDS011;10426;49.420;8.390;2022-09-04T07:20:31;7.65;;;5.40;;
20535;SDS011;10426;49.420;8.390;2022-09-04T07:23:10;7.03;;;5.85;;
20535;SDS011;10426;49.420;8.390;2022-09-04T07:25:43;6.20;;;5.68;;
20535;SDS011;10426;49.420;8.390;2022-09-04T07:28:32;6.28;;;5.78;;
20535;SDS011;10426;49.420;8.390;2022-09-04T07:31:01;7.27;;;6.57;;
20535;SDS011;10426;49.420;8.390;2022-09-04T07:33:31;7.03;;;6.38;;
20535;SDS011;10426;49.420;8.390;2022-09-04T07:36:02;8.15;;;7.28;;
20535;SDS011;10426;49.420;8.390;2022-09-04T07:38:33;9.68;;;6.90;;
20535;SDS011;10426;49.420;8.390;2022-09-04T07:41:05;8.43;;;7.53;;
20535;SDS011;10426;49.420;8.390;2022-09-04T07:43:36;9.23;;;7.78;;
20535;SDS011;10426;49.420;8.390;2022-09-04T07:46:09;9.65;;;8.02;;
20535;SDS011;10426;49.420;8.390;2022-09-04T07:48:39;9.73;;;8.10;;
20535;SDS011;10426;49.420;8.390;2022-09-04T07:51:09;9.53;;;8.47;;
20535;SDS011;10426;49.420;8.390;2022-09-04T07:56:29;11.40;;;8.13;;
20535;SDS011;10426;49.420;8.390;2022-09-04T07:59:10;10.70;;;8.98;;
20535;SDS011;10426;49.420;8.390;2022-09-04T08:01:44;10.07;;;8.98;;
20535;SDS011;10426;49.420;8.390;2022-09-04T08:04:22;10.18;;;9.00;;
20535;SDS011;10426;49.420;8.390;2022-09-04T08:06:49;11.13;;;8.98;;
20535;SDS011;10426;49.420;8.390;2022-09-04T08:09:27;9.55;;;8.55;;
20535;SDS011;10426;49.420;8.390;2022-09-04T08:14:52;9.82;;;8.30;;
20535;SDS011;10426;49.420;8.390;2022-09-04T08:20:06;9.73;;;8.50;;
20535;SDS011;10426;49.420;8.390;2022-09-04T08:22:40;10.00;;;8.90;;
20535;SDS011;10426;49.420;8.390;2022-09-04T08:25:13;9.15;;;8.20;;
20535;SDS011;10426;49.420;8.390;2022-09-04T08:27:45;8.73;;;7.70;;
20535;SDS011;10426;49.420;8.390;2022-09-04T08:30:19;7.95;;;7.22;;
20535;SDS011;10426;49.420;8.390;2022-09-04T08:32:59;8.05;;;6.60;;
20535;SDS011;10426;49.420;8.390;2022-09-04T08:35:34;7.55;;;6.85;;
20535;SDS011;10426;49.420;8.390;2022-09-04T08:40:56;9.57;;;7.85;;
20535;SDS011;10426;49.420;8.390;2022-09-04T08:43:29;6.93;;;6.33;;
20535;SDS011;10426;49.420;8.390;2022-09-04T08:46:21;6.85;;;6.25;;
20535;SDS011;10426;49.420;8.390;2022-09-04T08:49:01;6.65;;;6.05;;
20535;SDS011;10426;49.420;8.390;2022-09-04T08:51:43;7.43;;;6.72;;
20535;SDS011;10426;49.420;8.390;2022-09-04T08:57:08;7.97;;;7.10;;
20535;SDS011;10426;49.420;8.390;2022-09-04T09:00:03;8.10;;;7.20;;
20535;SDS011;10426;49.420;8.390;2022-09-04T09:02:41;7.00;;;6.38;;
20535;SDS011;10426;49.420;8.390;2022-09-04T09:05:23;7.83;;;7.10;;
20535;SDS011;10426;49.420;8.390;2022-09-04T09:08:00;8.43;;;7.57;;
20535;SDS011;10426;49.420;8.390;2022-09-04T09:10:34;8.27;;;7.20;;
20535;SDS011;10426;49.420;8.390;2022-09-04T09:18:40;8.57;;;7.60;;
20535;SDS011;10426;49.420;8.390;2022-09-04T09:21:15;7.75;;;7.05;;
20535;SDS011;10426;49.420;8.390;2022-09-04T09:23:55;7.32;;;6.63;;
20535;SDS011;10426;49.420;8.390;2022-09-04T09:26:26;7.20;;;6.50;;
20535;SDS011;10426;49.420;8.390;2022-09-04T09:31:46;7.65;;;6.95;;
20535;SDS011;10426;49.420;8.390;2022-09-04T09:34:23;8.35;;;6.93;;
20535;SDS011;10426;49.420;8.390;2022-09-04T09:37:00;6.82;;;6.13;;
20535;SDS011;10426;49.420;8.390;2022-09-04T09:39:36;7.38;;;6.05;;
20535;SDS011;10426;49.420;8.390;2022-09-04T09:45:15;5.32;;;4.93;;
20535;SDS011;10426;49.420;8.390;2022-09-04T09:47:58;5.33;;;4.93;;
20535;SDS011;10426;49.420;8.390;2022-09-04T09:50:44;6.25;;;5.65;;
20535;SDS011;10426;49.420;8.390;2022-09-04T09:56:07;5.50;;;5.00;;
20535;SDS011;10426;49.420;8.390;2022-09-04T09:58:54;5.00;;;4.60;;
20535;SDS011;10426;49.420;8.390;2022-09-04T10:01:32;7.50;;;4.97;;
20535;SDS011;10426;49.420;8.390;2022-09-04T10:04:10;5.20;;;4.70;;
20535;SDS011;10426;49.420;8.390;2022-09-04T10:06:48;4.85;;;4.45;;
20535;SDS011;10426;49.420;8.390;2022-09-04T10:09:39;6.18;;;4.85;;
20535;SDS011;10426;49.420;8.390;2022-09-04T10:12:22;4.80;;;4.05;;
20535;SDS011;10426;49.420;8.390;2022-09-04T10:15:01;4.50;;;4.20;;
20535;SDS011;10426;49.420;8.390;2022-09-04T10:17:49;5.35;;;4.40;;
20535;SDS011;10426;49.420;8.390;2022-09-04T10:20:40;3.95;;;3.65;;
20535;SDS011;10426;49.420;8.390;2022-09-04T10:23:22;4.50;;;4.20;;
20535;SDS011;10426;49.420;8.390;2022-09-04T10:28:43;4.93;;;3.85;;
20535;SDS011;10426;49.420;8.390;2022-09-04T10:31:27;4.50;;;4.10;;
20535;SDS011;10426;49.420;8.390;2022-09-04T10:34:01;4.50;;;4.10;;
20535;SDS011;10426;49.420;8.390;2022-09-04T10:36:34;4.25;;;3.95;;
20535;SDS011;10426;49.420;8.390;2022-09-04T10:39:08;4.68;;;4.28;;
20535;SDS011;10426;49.420;8.390;2022-09-04T10:41:59;4.95;;;4.53;;
20535;SDS011;10426;49.420;8.390;2022-09-04T10:47:17;5.05;;;4.30;;
20535;SDS011;10426;49.420;8.390;2022-09-04T10:49:56;4.93;;;4.50;;
20535;SDS011;10426;49.420;8.390;2022-09-04T10:52:52;4.90;;;4.40;;
20535;SDS011;10426;49.420;8.390;2022-09-04T10:55:36;3.70;;;3.40;;
20535;SDS011;10426;49.420;8.390;2022-09-04T10:58:25;4.10;;;3.80;;
20535;SDS011;10426;49.420;8.390;2022-09-04T11:01:08;4.47;;;4.07;;
20535;SDS011;10426;49.420;8.390;2022-09-04T11:03:47;4.03;;;3.65;;
20535;SDS011;10426;49.420;8.390;2022-09-04T11:06:30;4.10;;;3.70;;
20535;SDS011;10426;49.420;8.390;2022-09-04T11:09:06;3.97;;;3.67;;
20535;SDS011;10426;49.420;8.390;2022-09-04T11:11:44;3.85;;;3.45;;
20535;SDS011;10426;49.420;8.390;2022-09-04T11:20:11;2.78;;;2.67;;
20535;SDS011;10426;49.420;8.390;2022-09-04T11:22:49;2.80;;;2.60;;
20535;SDS011;10426;49.420;8.390;2022-09-04T11:25:36;2.80;;;2.70;;
20535;SDS011;10426;49.420;8.390;2022-09-04T11:28:12;2.83;;;2.63;;
20535;SDS011;10426;49.420;8.390;2022-09-04T11:30:48;3.00;;;2.80;;
20535;SDS011;10426;49.420;8.390;2022-09-04T11:33:26;2.80;;;2.60;;
20535;SDS011;10426;49.420;8.390;2022-09-04T11:36:05;2.33;;;2.22;;
20535;SDS011;10426;49.420;8.390;2022-09-04T11:41:30;3.10;;;2.80;;
20535;SDS011;10426;49.420;8.390;2022-09-04T11:46:58;2.93;;;2.83;;
20535;SDS011;10426;49.420;8.390;2022-09-04T11:49:35;2.40;;;2.30;;
20535;SDS011;10426;49.420;8.390;2022-09-04T11:52:12;2.00;;;1.90;;
20535;SDS011;10426;49.420;8.390;2022-09-04T11:55:02;1.85;;;1.75;;
20535;SDS011;10426;49.420;8.390;2022-09-04T11:57:34;2.00;;;1.85;;
20535;SDS011;10426;49.420;8.390;2022-09-04T12:00:05;2.08;;;1.98;;
20535;SDS011;10426;49.420;8.390;2022-09-04T12:02:43;2.10;;;2.00;;
20535;SDS011;10426;49.420;8.390;2022-09-04T12:05:18;1.90;;;1.90;;
20535;SDS011;10426;49.420;8.390;2022-09-04T12:08:07;2.25;;;2.15;;
20535;SDS011;10426;49.420;8.390;2022-09-04T12:10:43;2.13;;;2.03;;
20535;SDS011;10426;49.420;8.390;2022-09-04T12:13:17;3.10;;;1.95;;
20535;SDS011;10426;49.420;8.390;2022-09-04T12:15:51;1.95;;;1.85;;
20535;SDS011;10426;49.420;8.390;2022-09-04T12:18:30;1.92;;;1.83;;
20535;SDS011;10426;49.420;8.390;2022-09-04T12:21:06;1.30;;;1.20;;
20535;SDS011;10426;49.420;8.390;2022-09-04T12:23:52;1.58;;;1.50;;
20535;SDS011;10426;49.420;8.390;2022-09-04T12:26:30;1.80;;;1.70;;
20535;SDS011;10426;49.420;8.390;2022-09-04T12:29:13;2.70;;;1.60;;
20535;SDS011;10426;49.420;8.390;2022-09-04T12:31:50;1.60;;;1.60;;
20535;SDS011;10426;49.420;8.390;2022-09-04T12:34:29;1.70;;;1.60;;
20535;SDS011;10426;49.420;8.390;2022-09-04T12:37:03;2.20;;;1.20;;
20535;SDS011;10426;49.420;8.390;2022-09-04T12:39:40;1.40;;;1.30;;
20535;SDS011;10426;49.420;8.390;2022-09-04T12:42:10;1.42;;;1.30;;
20535;SDS011;10426;49.420;8.390;2022-09-04T12:44:42;1.15;;;1.10;;
20535;SDS011;10426;49.420;8.390;2022-09-04T12:47:19;1.00;;;1.00;;
20535;SDS011;10426;49.420;8.390;2022-09-04T12:50:05;1.35;;;1.10;;
20535;SDS011;10426;49.420;8.390;2022-09-04T12:52:51;1.10;;;1.10;;
20535;SDS011;10426;49.420;8.390;2022-09-04T12:55:21;1.05;;;1.05;;
20535;SDS011;10426;49.420;8.390;2022-09-04T12:57:53;0.90;;;0.90;;
20535;SDS011;10426;49.420;8.390;2022-09-04T13:00:45;1.05;;;1.05;;
20535;SDS011;10426;49.420;8.390;2022-09-04T13:03:17;1.13;;;1.10;;
20535;SDS011;10426;49.420;8.390;2022-09-04T13:05:51;2.10;;;1.00;;
20535;SDS011;10426;49.420;8.390;2022-09-04T13:08:25;0.93;;;0.93;;
20535;SDS011;10426;49.420;8.390;2022-09-04T13:10:58;1.98;;;1.10;;
20535;SDS011;10426;49.420;8.390;2022-09-04T13:13:28;1.05;;;1.00;;
20535;SDS011;10426;49.420;8.390;2022-09-04T13:16:00;1.25;;;0.88;;
20535;SDS011;10426;49.420;8.390;2022-09-04T13:18:32;0.90;;;0.90;;
20535;SDS011;10426;49.420;8.390;2022-09-04T13:21:06;1.10;;;1.10;;
20535;SDS011;10426;49.420;8.390;2022-09-04T13:23:39;1.10;;;1.10;;
20535;SDS011;10426;49.420;8.390;2022-09-04T13:26:11;1.23;;;1.17;;
20535;SDS011;10426;49.420;8.390;2022-09-04T13:28:43;1.10;;;1.10;;
20535;SDS011;10426;49.420;8.390;2022-09-04T13:34:06;1.00;;;1.00;;
20535;SDS011;10426;49.420;8.390;2022-09-04T13:36:42;1.08;;;1.08;;
20535;SDS011;10426;49.420;8.390;2022-09-04T13:39:31;1.03;;;1.00;;
20535;SDS011;10426;49.420;8.390;2022-09-04T13:42:05;1.00;;;1.00;;
20535;SDS011;10426;49.420;8.390;2022-09-04T13:47:26;1.08;;;1.08;;
20535;SDS011;10426;49.420;8.390;2022-09-04T13:49:56;1.10;;;1.10;;
20535;SDS011;10426;49.420;8.390;2022-09-04T13:52:28;1.30;;;1.07;;
20535;SDS011;10426;49.420;8.390;2022-09-04T13:54:58;1.00;;;1.00;;
20535;SDS011;10426;49.420;8.390;2022-09-04T13:57:26;1.10;;;1.10;;
20535;SDS011;10426;49.420;8.390;2022-09-04T13:59:54;1.17;;;1.10;;
20535;SDS011;10426;49.420;8.390;2022-09-04T14:02:23;1.08;;;1.08;;
20535;SDS011;10426;49.420;8.390;2022-09-04T14:04:51;1.10;;;1.10;;
20535;SDS011;10426;49.420;8.390;2022-09-04T14:07:21;1.10;;;1.10;;
20535;SDS011;10426;49.420;8.390;2022-09-04T14:09:51;1.10;;;1.10;;
20535;SDS011;10426;49.420;8.390;2022-09-04T14:12:25;1.17;;;1.17;;
20535;SDS011;10426;49.420;8.390;2022-09-04T14:17:45;1.30;;;1.30;;
20535;SDS011;10426;49.420;8.390;2022-09-04T14:20:19;1.20;;;1.10;;
20535;SDS011;10426;49.420;8.390;2022-09-04T14:22:48;1.20;;;1.20;;
20535;SDS011;10426;49.420;8.390;2022-09-04T14:25:20;1.13;;;1.02;;
20535;SDS011;10426;49.420;8.390;2022-09-04T14:27:50;1.20;;;1.20;;
20535;SDS011;10426;49.420;8.390;2022-09-04T14:30:19;1.30;;;1.30;;
20535;SDS011;10426;49.420;8.390;2022-09-04T14:32:49;1.30;;;1.30;;
20535;SDS011;10426;49.420;8.390;2022-09-04T14:35:23;1.40;;;1.40;;
20535;SDS011;10426;49.420;8.390;2022-09-04T14:37:56;1.38;;;1.38;;
20535;SDS011;10426;49.420;8.390;2022-09-04T14:40:28;1.20;;;1.20;;
20535;SDS011;10426;49.420;8.390;2022-09-04T14:42:58;1.20;;;1.20;;
20535;SDS011;10426;49.420;8.390;2022-09-04T14:45:47;2.00;;;1.23;;
20535;SDS011;10426;49.420;8.390;2022-09-04T14:48:16;1.20;;;1.20;;
20535;SDS011;10426;49.420;8.390;2022-09-04T14:50:44;1.45;;;1.05;;
20535;SDS011;10426;49.420;8.390;2022-09-04T14:53:12;0.93;;;0.93;;
20535;SDS011;10426;49.420;8.390;2022-09-04T14:56:00;1.00;;;1.00;;
20535;SDS011;10426;49.420;8.390;2022-09-04T14:58:32;0.97;;;0.97;;
20535;SDS011;10426;49.420;8.390;2022-09-04T15:01:01;2.45;;;1.08;;
20535;SDS011;10426;49.420;8.390;2022-09-04T15:03:32;1.13;;;1.07;;
20535;SDS011;10426;49.420;8.390;2022-09-04T15:06:03;1.00;;;1.00;;
20535;SDS011;10426;49.420;8.390;2022-09-04T15:08:32;1.00;;;1.00;;
20535;SDS011;10426;49.420;8.390;2022-09-04T15:11:02;1.10;;;1.10;;
20535;SDS011;10426;49.420;8.390;2022-09-04T15:13:32;0.90;;;0.90;;
20535;SDS011;10426;49.420;8.390;2022-09-04T15:16:04;1.03;;;1.03;;
20535;SDS011;10426;49.420;8.390;2022-09-04T15:18:34;1.30;;;1.00;;
20535;SDS011;10426;49.420;8.390;2022-09-04T15:21:10;1.08;;;1.08;;
20535;SDS011;10426;49.420;8.390;2022-09-04T15:23:39;1.40;;;0.93;;
20535;SDS011;10426;49.420;8.390;2022-09-04T15:26:14;0.90;;;0.90;;
20535;SDS011;10426;49.420;8.390;2022-09-04T15:28:45;0.90;;;0.90;;
20535;SDS011;10426;49.420;8.390;2022-09-04T15:31:14;1.10;;;1.10;;
20535;SDS011;10426;49.420;8.390;2022-09-04T15:33:42;1.00;;;1.00;;
20535;SDS011;10426;49.420;8.390;2022-09-04T15:36:13;2.28;;;1.83;;
20535;SDS011;10426;49.420;8.390;2022-09-04T15:38:45;1.80;;;1.20;;
20535;SDS011;10426;49.420;8.390;2022-09-04T15:41:16;1.02;;;1.02;;
20535;SDS011;10426;49.420;8.390;2022-09-04T15:43:46;1.00;;;1.00;;
20535;SDS011;10426;49.420;8.390;2022-09-04T15:46:16;1.63;;;0.93;;
20535;SDS011;10426;49.420;8.390;2022-09-04T15:48:47;1.02;;;1.00;;
20535;SDS011;10426;49.420;8.390;2022-09-04T15:51:19;1.00;;;1.00;;
20535;SDS011;10426;49.420;8.390;2022-09-04T15:53:50;1.30;;;1.00;;
20535;SDS011;10426;49.420;8.390;2022-09-04T15:56:31;1.10;;;1.00;;
20535;SDS011;10426;49.420;8.390;2022-09-04T15:59:03;1.13;;;1.10;;
20535;SDS011;10426;49.420;8.390;2022-09-04T16:01:34;0.95;;;0.90;;
20535;SDS011;10426;49.420;8.390;2022-09-04T16:04:09;1.20;;;1.10;;
20535;SDS011;10426;49.420;8.390;2022-09-04T16:06:42;1.50;;;1.10;;
20535;SDS011;10426;49.420;8.390;2022-09-04T16:09:16;1.17;;;1.10;;
20535;SDS011;10426;49.420;8.390;2022-09-04T16:11:46;1.00;;;1.00;;
20535;SDS011;10426;49.420;8.390;2022-09-04T16:14:21;1.00;;;1.00;;
20535;SDS011;10426;49.420;8.390;2022-09-04T16:16:49;1.30;;;1.20;;
20535;SDS011;10426;49.420;8.390;2022-09-04T16:19:23;1.10;;;1.10;;
20535;SDS011;10426;49.420;8.390;2022-09-04T16:21:53;2.08;;;1.10;;
20535;SDS011;10426;49.420;8.390;2022-09-04T16:24:28;1.10;;;1.10;;
20535;SDS011;10426;49.420;8.390;2022-09-04T16:26:57;1.00;;;1.00;;
20535;SDS011;10426;49.420;8.390;2022-09-04T16:29:29;1.13;;;1.13;;
20535;SDS011;10426;49.420;8.390;2022-09-04T16:32:01;1.20;;;1.10;;
20535;SDS011;10426;49.420;8.390;2022-09-04T16:34:30;1.00;;;1.00;;
20535;SDS011;10426;49.420;8.390;2022-09-04T16:37:02;1.33;;;1.10;;